createdAt,value
2023-03-19T00:00:56.579Z,100705.17
2023-03-19T00:03:23.736Z,100699.85
2023-03-19T00:05:52.875Z,100702.48
2023-03-19T00:08:20.734Z,100697.14
2023-03-19T00:10:50.568Z,100694.65
2023-03-19T00:13:18.035Z,100693.58
2023-03-19T00:15:46.862Z,100689.96
2023-03-19T00:18:14.716Z,100690.05
2023-03-19T00:20:42.633Z,100686.55
2023-03-19T00:23:09.862Z,100687.94
2023-03-19T00:25:37.368Z,100685.23
2023-03-19T00:28:04.767Z,100681.30
2023-03-19T00:30:36.093Z,100679.26
2023-03-19T00:33:03.490Z,100680.42
2023-03-19T00:35:32.269Z,100675.01
2023-03-19T00:38:03.308Z,100670.50
2023-03-19T00:40:33.023Z,100668.27
2023-03-19T00:43:00.229Z,100668.02
2023-03-19T00:45:33.435Z,100663.19
2023-03-19T00:48:01.005Z,100667.51
2023-03-19T00:50:28.167Z,100663.52
2023-03-19T00:52:56.871Z,100662.27
2023-03-19T00:55:25.087Z,100664.27
2023-03-19T00:57:55.557Z,100660.19
2023-03-19T01:00:23.126Z,100663.63
2023-03-19T01:02:50.473Z,100662.30
2023-03-19T01:05:18.202Z,100659.85
2023-03-19T01:07:45.887Z,100661.21
2023-03-19T01:10:13.135Z,100660.05
2023-03-19T01:12:42.822Z,100662.53
2023-03-19T01:15:11.077Z,100661.59
2023-03-19T01:17:38.529Z,100665.52
2023-03-19T01:20:12.466Z,100660.54
2023-03-19T01:22:41.852Z,100664.80
2023-03-19T01:25:12.087Z,100658.49
2023-03-19T01:27:40.779Z,100656.80
2023-03-19T01:30:10.051Z,100649.08
2023-03-19T01:32:58.858Z,100649.27
2023-03-19T01:35:34.308Z,100648.91
2023-03-19T01:38:06.082Z,100648.91
2023-03-19T01:40:33.675Z,100645.30
2023-03-19T01:43:12.459Z,100646.36
2023-03-19T01:45:56.629Z,100648.05
2023-03-19T01:48:51.541Z,100646.59
2023-03-19T01:51:25.678Z,100643.27
2023-03-19T01:54:22.267Z,100645.02
2023-03-19T01:57:02.906Z,100645.47
2023-03-19T01:59:52.810Z,100646.98
2023-03-19T02:02:44.295Z,100650.92
2023-03-19T02:05:40.226Z,100651.42
2023-03-19T02:08:16.080Z,100650.63
2023-03-19T02:10:47.766Z,100653.54
2023-03-19T02:13:15.680Z,100654.09
2023-03-19T02:15:42.689Z,100650.69
2023-03-19T02:18:10.468Z,100651.91
2023-03-19T02:20:53.328Z,100651.69
2023-03-19T02:23:21.853Z,100652.11
2023-03-19T02:26:00.934Z,100653.35
2023-03-19T02:28:39.420Z,100653.61
2023-03-19T02:31:07.587Z,100657.11
2023-03-19T02:33:35.971Z,100657.54
2023-03-19T02:36:09.360Z,100659.23
2023-03-19T02:38:40.479Z,100661.13
2023-03-19T02:41:09.875Z,100659.98
2023-03-19T02:43:40.872Z,100657.95
2023-03-19T02:46:11.463Z,100659.30
2023-03-19T02:48:41.117Z,100663.15
2023-03-19T02:51:08.204Z,100660.77
2023-03-19T02:53:42.727Z,100657.05
2023-03-19T02:56:09.602Z,100656.32
2023-03-19T02:58:36.511Z,100656.81
2023-03-19T03:01:04.123Z,100656.19
2023-03-19T03:03:32.110Z,100658.33
2023-03-19T03:05:59.426Z,100659.61
2023-03-19T03:08:29.629Z,100662.09
2023-03-19T03:10:57.403Z,100663.05
2023-03-19T03:13:25.233Z,100657.97
2023-03-19T03:15:53.177Z,100659.48
2023-03-19T03:18:20.311Z,100665.00
2023-03-19T03:20:48.571Z,100664.18
2023-03-19T03:23:16.682Z,100664.82
2023-03-19T03:25:43.561Z,100663.87
2023-03-19T03:28:11.892Z,100668.20
2023-03-19T03:30:40.174Z,100663.73
2023-03-19T03:33:07.164Z,100663.00
2023-03-19T03:35:34.656Z,100668.23
2023-03-19T03:38:04.114Z,100666.19
2023-03-19T03:40:33.320Z,100668.27
2023-03-19T03:43:01.947Z,100668.81
2023-03-19T03:45:29.445Z,100667.53
2023-03-19T03:47:56.420Z,100672.44
2023-03-19T03:50:24.346Z,100668.67
2023-03-19T03:52:54.328Z,100670.07
2023-03-19T03:55:21.504Z,100668.48
2023-03-19T03:57:48.922Z,100671.26
2023-03-19T04:00:25.016Z,100673.95
2023-03-19T04:02:52.496Z,100674.69
2023-03-19T04:05:19.659Z,100681.89
2023-03-19T04:07:47.386Z,100685.55
2023-03-19T04:10:15.004Z,100684.17
2023-03-19T04:12:42.301Z,100682.58
2023-03-19T04:15:16.253Z,100683.44
2023-03-19T04:17:45.020Z,100684.70
2023-03-19T04:20:13.847Z,100685.57
2023-03-19T04:22:49.237Z,100687.77
2023-03-19T04:25:17.974Z,100688.23
2023-03-19T04:27:45.621Z,100688.84
2023-03-19T04:30:14.075Z,100687.71
2023-03-19T04:32:45.906Z,100689.74
2023-03-19T04:35:18.060Z,100690.20
2023-03-19T04:37:47.986Z,100689.02
2023-03-19T04:40:16.579Z,100690.41
2023-03-19T04:42:45.618Z,100684.89
2023-03-19T04:45:19.076Z,100684.88
2023-03-19T04:47:53.515Z,100684.73
2023-03-19T04:50:21.364Z,100683.27
2023-03-19T04:52:49.095Z,100681.17
2023-03-19T04:55:16.281Z,100682.54
2023-03-19T04:57:49.095Z,100678.28
2023-03-19T05:00:17.338Z,100682.45
2023-03-19T05:02:47.047Z,100680.58
2023-03-19T05:05:14.837Z,100678.19
2023-03-19T05:07:44.303Z,100678.52
2023-03-19T05:10:11.543Z,100679.91
2023-03-19T05:12:45.400Z,100681.38
2023-03-19T05:15:14.467Z,100683.43
2023-03-19T05:17:50.742Z,100685.92
2023-03-19T05:20:24.744Z,100686.49
2023-03-19T05:22:57.278Z,100685.88
2023-03-19T05:25:34.935Z,100688.89
2023-03-19T05:28:03.608Z,100694.40
2023-03-19T05:30:31.157Z,100691.84
2023-03-19T05:33:06.004Z,100691.90
2023-03-19T05:35:40.041Z,100688.80
2023-03-19T05:38:16.812Z,100689.35
2023-03-19T05:40:46.365Z,100689.90
2023-03-19T05:43:33.648Z,100686.56
2023-03-19T05:46:02.744Z,100692.21
2023-03-19T05:48:31.561Z,100698.59
2023-03-19T05:51:00.836Z,100697.04
2023-03-19T05:53:33.625Z,100696.42
2023-03-19T05:56:28.413Z,100702.10
2023-03-19T05:59:09.914Z,100701.80
2023-03-19T06:01:39.302Z,100702.23
2023-03-19T06:04:10.012Z,100706.03
2023-03-19T06:06:38.426Z,100705.09
2023-03-19T06:09:05.646Z,100699.41
2023-03-19T06:11:43.273Z,100698.88
2023-03-19T06:14:29.794Z,100692.81
2023-03-19T06:17:19.886Z,100690.73
2023-03-19T06:19:47.615Z,100696.08
2023-03-19T06:22:14.794Z,100699.99
2023-03-19T06:24:41.972Z,100693.98
2023-03-19T06:27:10.941Z,100692.98
2023-03-19T06:29:38.040Z,100692.31
2023-03-19T06:32:18.209Z,100690.77
2023-03-19T06:34:46.603Z,100691.95
2023-03-19T06:37:13.803Z,100686.34
2023-03-19T06:39:40.823Z,100686.30
2023-03-19T06:42:08.138Z,100683.56
2023-03-19T06:44:37.523Z,100687.53
2023-03-19T06:47:05.084Z,100691.27
2023-03-19T06:49:32.947Z,100683.30
2023-03-19T06:52:01.880Z,100684.63
2023-03-19T06:54:28.960Z,100684.23
2023-03-19T06:56:55.823Z,100682.16
2023-03-19T06:59:23.172Z,100686.98
2023-03-19T07:01:50.510Z,100692.40
2023-03-19T07:04:18.068Z,100689.81
2023-03-19T07:06:45.865Z,100686.80
2023-03-19T07:09:14.105Z,100689.93
2023-03-19T07:11:41.576Z,100688.10
2023-03-19T07:14:09.407Z,100686.89
2023-03-19T07:16:36.679Z,100683.33
2023-03-19T07:19:03.724Z,100686.06
2023-03-19T07:21:32.443Z,100682.72
2023-03-19T07:23:59.888Z,100680.14
2023-03-19T07:26:27.751Z,100680.17
2023-03-19T07:28:55.119Z,100681.42
2023-03-19T07:31:22.108Z,100681.95
2023-03-19T07:33:50.110Z,100684.23
2023-03-19T07:36:17.046Z,100684.08
2023-03-19T07:38:43.966Z,100676.61
2023-03-19T07:41:11.296Z,100677.50
2023-03-19T07:43:38.838Z,100679.66
2023-03-19T07:46:06.251Z,100679.85
2023-03-19T07:48:35.267Z,100674.38
2023-03-19T07:51:02.622Z,100673.92
2023-03-19T07:53:31.669Z,100672.64
2023-03-19T07:55:58.941Z,100675.30
2023-03-19T07:58:26.475Z,100671.77
2023-03-19T08:00:54.229Z,100672.50
2023-03-19T08:03:21.208Z,100672.67
2023-03-19T08:05:49.603Z,100676.37
2023-03-19T08:08:17.130Z,100674.14
2023-03-19T08:10:44.840Z,100672.31
2023-03-19T08:13:13.611Z,100677.50
2023-03-19T08:15:40.748Z,100669.26
2023-03-19T08:18:09.831Z,100665.91
2023-03-19T08:20:36.939Z,100660.14
2023-03-19T08:23:04.710Z,100655.86
2023-03-19T08:25:32.068Z,100659.05
2023-03-19T08:28:01.230Z,100659.59
2023-03-19T08:30:28.678Z,100662.23
2023-03-19T08:32:56.194Z,100660.36
2023-03-19T08:35:26.569Z,100657.21
2023-03-19T08:37:54.892Z,100653.70
2023-03-19T08:40:22.235Z,100656.34
2023-03-19T08:42:49.203Z,100654.97
2023-03-19T08:45:16.483Z,100649.80
2023-03-19T08:47:43.661Z,100649.71
2023-03-19T08:50:15.962Z,100653.13
2023-03-19T08:52:43.597Z,100655.56
2023-03-19T08:55:10.891Z,100651.23
2023-03-19T08:57:38.039Z,100651.89
2023-03-19T09:00:07.596Z,100650.77
2023-03-19T09:02:50.028Z,100650.84
2023-03-19T09:05:21.901Z,100653.23
2023-03-19T09:07:51.430Z,100651.77
2023-03-19T09:10:18.429Z,100644.45
2023-03-19T09:12:48.614Z,100651.89
2023-03-19T09:15:16.524Z,100650.16
2023-03-19T09:17:45.573Z,100653.61
2023-03-19T09:20:18.922Z,100649.80
2023-03-19T09:22:46.020Z,100647.56
2023-03-19T09:25:15.573Z,100642.78
2023-03-19T09:27:44.480Z,100641.88
2023-03-19T09:30:12.061Z,100645.27
2023-03-19T09:32:56.547Z,100648.80
2023-03-19T09:35:24.405Z,100648.27
2023-03-19T09:37:52.199Z,100644.65
2023-03-19T09:40:33.232Z,100644.38
2023-03-19T09:43:31.297Z,100641.84
2023-03-19T09:46:01.635Z,100639.71
2023-03-19T09:48:54.629Z,100639.33
2023-03-19T09:51:34.618Z,100639.17
2023-03-19T09:54:06.596Z,100637.92
2023-03-19T09:56:35.259Z,100636.73
2023-03-19T09:59:02.726Z,100632.27
2023-03-19T10:01:34.930Z,100633.54
2023-03-19T10:04:20.259Z,100629.81
2023-03-19T10:06:47.377Z,100628.45
2023-03-19T10:09:42.730Z,100618.89
2023-03-19T10:12:29.380Z,100618.75
2023-03-19T10:14:59.950Z,100611.70
2023-03-19T10:17:35.740Z,100611.14
2023-03-19T10:20:10.078Z,100607.48
2023-03-19T10:22:47.638Z,100606.95
2023-03-19T10:25:22.294Z,100608.10
2023-03-19T10:27:56.146Z,100603.90
2023-03-19T10:30:23.555Z,100603.60
2023-03-19T10:33:17.287Z,100606.32
2023-03-19T10:35:48.743Z,100596.15
2023-03-19T10:38:21.215Z,100597.20
2023-03-19T10:40:55.139Z,100595.17
2023-03-19T10:43:26.881Z,100595.24
2023-03-19T10:45:53.835Z,100592.34
2023-03-19T10:48:28.351Z,100591.13
2023-03-19T10:51:05.605Z,100589.74
2023-03-19T10:53:36.167Z,100587.95
2023-03-19T10:56:20.494Z,100588.77
2023-03-19T10:59:00.834Z,100589.16
2023-03-19T11:01:36.013Z,100591.95
2023-03-19T11:04:17.976Z,100592.23
2023-03-19T11:07:10.728Z,100589.92
2023-03-19T11:09:44.000Z,100585.56
2023-03-19T11:12:33.448Z,100588.08
2023-03-19T11:15:07.016Z,100586.98
2023-03-19T11:17:44.877Z,100579.17
2023-03-19T11:20:23.546Z,100579.63
2023-03-19T11:22:52.537Z,100576.59
2023-03-19T11:25:25.667Z,100576.69
2023-03-19T11:28:00.641Z,100574.85
2023-03-19T11:31:01.540Z,100570.95
2023-03-19T11:33:54.486Z,100567.45
2023-03-19T11:36:30.689Z,100566.30
2023-03-19T11:39:32.393Z,100568.89
2023-03-19T11:42:26.065Z,100565.09
2023-03-19T11:45:12.149Z,100561.10
2023-03-19T11:48:40.534Z,100561.89
2023-03-19T11:51:36.937Z,100565.17
2023-03-19T11:54:12.350Z,100562.04
2023-03-19T11:56:48.190Z,100565.98
2023-03-19T11:59:33.099Z,100562.77
2023-03-19T12:02:24.207Z,100559.23
2023-03-19T12:05:09.797Z,100562.84
2023-03-19T12:08:06.646Z,100560.63
2023-03-19T12:10:57.648Z,100561.52
2023-03-19T12:13:46.048Z,100566.52
2023-03-19T12:16:45.826Z,100559.41
2023-03-19T12:19:26.380Z,100562.83
2023-03-19T12:22:35.573Z,100557.81
2023-03-19T12:25:38.954Z,100559.30
2023-03-19T12:28:18.553Z,100559.90
2023-03-19T12:31:12.635Z,100554.55
2023-03-19T12:33:56.392Z,100551.64
2023-03-19T12:36:33.681Z,100548.37
2023-03-19T12:39:16.126Z,100542.70
2023-03-19T12:41:48.717Z,100542.07
2023-03-19T12:44:35.213Z,100543.34
2023-03-19T12:47:44.479Z,100535.73
2023-03-19T12:50:17.641Z,100535.90
2023-03-19T12:52:54.575Z,100540.11
2023-03-19T12:55:36.974Z,100542.40
2023-03-19T12:58:36.499Z,100540.83
2023-03-19T13:01:14.638Z,100541.27
2023-03-19T13:04:28.110Z,100538.08
2023-03-19T13:07:14.452Z,100536.61
2023-03-19T13:09:51.611Z,100532.54
2023-03-19T13:12:29.276Z,100528.89
2023-03-19T13:15:25.615Z,100528.63
2023-03-19T13:18:17.815Z,100533.81
2023-03-19T13:21:13.502Z,100532.88
2023-03-19T13:23:45.665Z,100528.65
2023-03-19T13:26:19.773Z,100528.40
2023-03-19T13:29:19.998Z,100521.54
2023-03-19T13:32:30.682Z,100518.66
2023-03-19T13:35:28.099Z,100519.34
2023-03-19T13:38:19.784Z,100515.65
2023-03-19T13:40:57.935Z,100512.55
2023-03-19T13:43:32.405Z,100510.54
2023-03-19T13:46:16.517Z,100504.56
2023-03-19T13:48:50.188Z,100506.61
2023-03-19T13:51:27.332Z,100507.11
2023-03-19T13:54:14.528Z,100504.72
2023-03-19T13:57:01.566Z,100497.98
2023-03-19T13:59:36.087Z,100490.52
2023-03-19T14:02:25.167Z,100495.94
2023-03-19T14:04:59.535Z,100497.86
2023-03-19T14:07:41.728Z,100500.96
2023-03-19T14:10:26.768Z,100498.33
2023-03-19T14:13:08.890Z,100497.63
2023-03-19T14:15:50.406Z,100500.40
2023-03-19T14:18:25.062Z,100501.71
2023-03-19T14:21:07.022Z,100498.88
2023-03-19T14:23:43.203Z,100494.90
2023-03-19T14:26:42.119Z,100491.50
2023-03-19T14:29:15.685Z,100493.21
2023-03-19T14:31:49.067Z,100499.07
2023-03-19T14:34:25.558Z,100500.11
2023-03-19T14:37:01.822Z,100500.38
2023-03-19T14:39:32.235Z,100500.98
2023-03-19T14:42:16.024Z,100500.71
2023-03-19T14:45:06.758Z,100499.13
2023-03-19T14:48:07.130Z,100494.41
2023-03-19T14:50:41.732Z,100493.16
2023-03-19T14:53:15.068Z,100494.31
2023-03-19T14:55:50.727Z,100495.52
2023-03-19T14:58:22.049Z,100501.27
2023-03-19T15:00:52.204Z,100499.23
2023-03-19T15:03:28.230Z,100499.73
2023-03-19T15:06:05.011Z,100501.47
2023-03-19T15:08:39.276Z,100504.83
2023-03-19T15:11:33.001Z,100508.98
2023-03-19T15:14:27.835Z,100512.44
2023-03-19T15:17:28.065Z,100510.70
2023-03-19T15:19:57.990Z,100506.09
2023-03-19T15:22:33.986Z,100507.15
2023-03-19T15:25:12.276Z,100511.46
2023-03-19T15:27:41.080Z,100513.20
2023-03-19T15:30:28.515Z,100515.75
2023-03-19T15:33:10.575Z,100516.58
2023-03-19T15:35:46.980Z,100516.42
2023-03-19T15:38:17.237Z,100519.61
2023-03-19T15:40:44.952Z,100519.20
2023-03-19T15:43:13.487Z,100522.98
2023-03-19T15:45:48.222Z,100523.64
2023-03-19T15:48:27.811Z,100523.13
2023-03-19T15:51:01.856Z,100527.02
2023-03-19T15:53:39.802Z,100530.35
2023-03-19T15:56:17.710Z,100534.06
2023-03-19T15:58:53.176Z,100528.71
2023-03-19T16:01:27.025Z,100528.30
2023-03-19T16:04:06.176Z,100534.73
2023-03-19T16:06:41.301Z,100531.46
2023-03-19T16:09:26.023Z,100539.96
2023-03-19T16:11:59.760Z,100537.96
2023-03-19T16:14:50.861Z,100540.03
2023-03-19T16:17:36.215Z,100539.73
2023-03-19T16:20:07.206Z,100541.73
2023-03-19T16:22:37.738Z,100546.39
2023-03-19T16:25:21.349Z,100541.98
2023-03-19T16:27:53.015Z,100544.58
2023-03-19T16:30:28.248Z,100547.17
2023-03-19T16:33:05.507Z,100548.27
2023-03-19T16:35:36.828Z,100553.95
2023-03-19T16:38:24.359Z,100557.83
2023-03-19T16:41:18.640Z,100560.24
2023-03-19T16:43:55.902Z,100564.63
2023-03-19T16:46:27.554Z,100560.92
2023-03-19T16:49:04.946Z,100560.95
2023-03-19T16:51:38.252Z,100559.10
2023-03-19T16:54:08.112Z,100557.52
2023-03-19T16:56:41.964Z,100558.58
2023-03-19T16:59:21.239Z,100558.70
2023-03-19T17:01:49.823Z,100560.99
2023-03-19T17:04:18.564Z,100562.13
2023-03-19T17:06:45.565Z,100561.98
2023-03-19T17:09:14.398Z,100563.30
2023-03-19T17:11:43.853Z,100562.55
2023-03-19T17:14:21.929Z,100558.99
2023-03-19T17:16:57.161Z,100559.14
2023-03-19T17:19:34.387Z,100558.58
2023-03-19T17:22:13.708Z,100559.20
2023-03-19T17:24:43.534Z,100558.03
2023-03-19T17:27:15.899Z,100555.11
2023-03-19T17:29:46.365Z,100551.17
2023-03-19T17:32:20.178Z,100553.98
2023-03-19T17:34:55.811Z,100556.91
2023-03-19T17:37:28.749Z,100552.48
2023-03-19T17:39:59.335Z,100553.32
2023-03-19T17:42:39.440Z,100547.13
2023-03-19T17:45:14.743Z,100543.88
2023-03-19T17:47:56.751Z,100545.27
2023-03-19T17:50:30.879Z,100542.41
2023-03-19T17:53:01.036Z,100547.65
2023-03-19T17:55:34.358Z,100541.91
2023-03-19T17:58:08.528Z,100538.64
2023-03-19T18:00:40.110Z,100542.78
2023-03-19T18:03:14.011Z,100542.95
2023-03-19T18:05:48.933Z,100547.73
2023-03-19T18:08:24.745Z,100543.61
2023-03-19T18:10:55.704Z,100540.76
2023-03-19T18:13:25.994Z,100542.45
2023-03-19T18:15:59.525Z,100549.00
2023-03-19T18:18:32.652Z,100546.64
2023-03-19T18:21:03.753Z,100544.50
2023-03-19T18:23:34.972Z,100542.10
2023-03-19T18:26:04.994Z,100544.79
2023-03-19T18:28:34.287Z,100543.63
2023-03-19T18:31:04.753Z,100538.90
2023-03-19T18:33:32.692Z,100538.48
2023-03-19T18:36:05.088Z,100541.39
2023-03-19T18:38:33.961Z,100542.16
2023-03-19T18:41:00.810Z,100548.50
2023-03-19T18:43:30.166Z,100545.30
2023-03-19T18:45:57.393Z,100542.92
2023-03-19T18:48:27.371Z,100540.91
2023-03-19T18:50:55.446Z,100547.44
2023-03-19T18:53:23.591Z,100544.66
2023-03-19T18:55:54.871Z,100548.45
2023-03-19T18:58:26.367Z,100547.52
2023-03-19T19:00:53.849Z,100552.90
2023-03-19T19:03:28.983Z,100547.46
2023-03-19T19:05:56.355Z,100549.36
2023-03-19T19:08:24.858Z,100548.16
2023-03-19T19:10:56.404Z,100548.16
2023-03-19T19:13:31.491Z,100548.11
2023-03-19T19:16:05.977Z,100545.33
2023-03-19T19:18:33.486Z,100544.03
2023-03-19T19:21:01.368Z,100537.66
2023-03-19T19:23:31.363Z,100535.56
2023-03-19T19:25:58.603Z,100538.00
2023-03-19T19:28:29.952Z,100533.13
2023-03-19T19:30:59.237Z,100523.39
2023-03-19T19:33:36.911Z,100525.03
2023-03-19T19:36:04.246Z,100522.79
2023-03-19T19:38:31.272Z,100521.92
2023-03-19T19:40:59.782Z,100522.55
2023-03-19T19:43:32.752Z,100520.52
2023-03-19T19:45:59.815Z,100521.04
2023-03-19T19:48:28.917Z,100519.73
2023-03-19T19:50:59.035Z,100514.16
2023-03-19T19:53:28.991Z,100513.52
2023-03-19T19:56:15.914Z,100512.70
2023-03-19T19:58:44.526Z,100512.09
2023-03-19T20:01:24.239Z,100513.21
2023-03-19T20:03:52.246Z,100508.55
2023-03-19T20:06:19.376Z,100504.27
2023-03-19T20:08:50.055Z,100502.83
2023-03-19T20:11:20.715Z,100501.36
2023-03-19T20:13:52.088Z,100500.59
2023-03-19T20:16:25.616Z,100500.45
2023-03-19T20:18:54.570Z,100494.88
2023-03-19T20:21:22.666Z,100494.48
2023-03-19T20:23:54.698Z,100496.00
2023-03-19T20:26:24.354Z,100496.21
2023-03-19T20:28:52.171Z,100495.90
2023-03-19T20:31:26.892Z,100493.88
2023-03-19T20:33:53.910Z,100492.17
2023-03-19T20:36:21.466Z,100493.95
2023-03-19T20:38:48.894Z,100494.96
2023-03-19T20:41:23.792Z,100494.00
2023-03-19T20:43:51.648Z,100493.64
2023-03-19T20:46:20.958Z,100493.81
2023-03-19T20:48:48.561Z,100495.63
2023-03-19T20:51:22.721Z,100495.95
2023-03-19T20:53:52.196Z,100494.36
2023-03-19T20:56:24.138Z,100494.36
2023-03-19T20:58:53.398Z,100493.67
2023-03-19T21:01:21.001Z,100489.74
2023-03-19T21:03:48.044Z,100489.01
2023-03-19T21:06:23.113Z,100484.34
2023-03-19T21:09:01.433Z,100483.52
2023-03-19T21:11:40.028Z,100478.41
2023-03-19T21:14:15.735Z,100478.25
2023-03-19T21:16:43.215Z,100475.59
2023-03-19T21:19:13.442Z,100475.92
2023-03-19T21:21:42.861Z,100471.08
2023-03-19T21:24:17.221Z,100466.81
2023-03-19T21:26:46.037Z,100471.18
2023-03-19T21:29:39.478Z,100464.12
2023-03-19T21:32:11.028Z,100467.91
2023-03-19T21:34:39.780Z,100464.33
2023-03-19T21:37:06.882Z,100466.62
2023-03-19T21:39:34.059Z,100465.29
2023-03-19T21:42:09.416Z,100459.55
2023-03-19T21:44:37.520Z,100456.66
2023-03-19T21:47:04.619Z,100453.99
2023-03-19T21:49:34.126Z,100458.36
2023-03-19T21:52:03.895Z,100456.20
2023-03-19T21:54:33.831Z,100457.85
2023-03-19T21:57:06.973Z,100459.45
2023-03-19T21:59:36.844Z,100463.05
2023-03-19T22:02:37.575Z,100462.79
2023-03-19T22:05:24.651Z,100463.23
2023-03-19T22:07:55.021Z,100463.83
2023-03-19T22:10:29.555Z,100457.16
2023-03-19T22:12:59.642Z,100455.71
2023-03-19T22:15:38.498Z,100450.27
2023-03-19T22:18:15.025Z,100454.27
2023-03-19T22:20:47.124Z,100457.77
2023-03-19T22:23:20.404Z,100460.42
2023-03-19T22:25:53.593Z,100466.27
2023-03-19T22:28:33.470Z,100470.02
2023-03-19T22:31:05.401Z,100462.89
2023-03-19T22:33:35.282Z,100461.05
2023-03-19T22:36:14.619Z,100462.80
2023-03-19T22:38:47.332Z,100462.83
2023-03-19T22:41:37.263Z,100464.11
2023-03-19T22:44:09.564Z,100464.83
2023-03-19T22:46:39.286Z,100460.90
2023-03-19T22:49:17.091Z,100460.75
2023-03-19T22:51:47.633Z,100460.39
2023-03-19T22:54:24.150Z,100461.35
2023-03-19T22:56:55.102Z,100461.92
2023-03-19T22:59:31.231Z,100461.48
2023-03-19T23:02:02.669Z,100460.61
2023-03-19T23:04:34.357Z,100460.52
2023-03-19T23:07:04.729Z,100459.67
2023-03-19T23:09:37.305Z,100462.90
2023-03-19T23:14:37.689Z,100468.17
2023-03-19T23:17:21.955Z,100465.34
2023-03-19T23:19:51.971Z,100462.70
2023-03-19T23:22:20.526Z,100456.70
2023-03-19T23:24:48.745Z,100453.21
2023-03-19T23:27:26.406Z,100456.98
2023-03-19T23:29:56.472Z,100458.34
2023-03-19T23:32:28.614Z,100456.77
2023-03-19T23:35:01.498Z,100461.96
2023-03-19T23:37:30.145Z,100461.42
2023-03-19T23:40:01.465Z,100466.10
2023-03-19T23:42:32.046Z,100466.80
2023-03-19T23:45:06.454Z,100466.23
2023-03-19T23:47:35.328Z,100466.40
2023-03-19T23:50:03.937Z,100464.20
2023-03-19T23:52:34.002Z,100464.75
2023-03-19T23:55:02.585Z,100465.42
2023-03-19T23:57:31.116Z,100464.06
